Time;durP1;ratioP1;P1;durP2;ratioP2;P2;SDS_P1;SDS_P2;PMS_P1;PMS_P2;Temp;Humidity;BMP_temperature;BMP_pressure;BME280_temperature;BME280_humidity;BME280_pressure;Samples;Min_cycle;Max_cycle;Signal;HPM_P1;HPM_P2
2021/09/16 00:02:04;;;;;;;3.20;1.00;;;20.90;63.50;;;;;;5074824;28;20644;-75
2021/09/16 00:04:30;;;;;;;2.97;1.17;;;20.90;63.40;;;;;;5073364;28;20185;-75
2021/09/16 00:06:55;;;;;;;2.85;1.15;;;21.00;63.50;;;;;;5073936;28;20178;-75
2021/09/16 00:09:21;;;;;;;2.47;0.93;;;20.90;63.50;;;;;;5074017;28;20182;-75
2021/09/16 00:11:46;;;;;;;3.17;1.10;;;20.90;63.30;;;;;;5073404;28;20833;-79
2021/09/16 00:14:12;;;;;;;3.75;1.10;;;20.90;63.40;;;;;;5074238;28;20179;-77
2021/09/16 00:16:38;;;;;;;3.47;1.45;;;20.90;63.40;;;;;;5074136;28;20201;-77
2021/09/16 00:19:03;;;;;;;2.08;0.80;;;20.90;63.30;;;;;;5073370;28;20237;-74
2021/09/16 00:21:29;;;;;;;1.88;0.77;;;20.90;63.30;;;;;;5073634;28;20219;-74
2021/09/16 00:23:54;;;;;;;1.40;0.90;;;20.90;63.20;;;;;;5074770;28;20220;-76
2021/09/16 00:26:20;;;;;;;1.67;0.90;;;20.90;63.20;;;;;;5076598;28;20201;-78
2021/09/16 00:28:45;;;;;;;2.10;1.00;;;20.90;63.20;;;;;;5075935;28;20228;-79
2021/09/16 00:31:11;;;;;;;2.17;1.10;;;20.80;62.90;;;;;;5073798;28;20568;-78
2021/09/16 00:33:36;;;;;;;2.47;0.98;;;20.90;63.00;;;;;;5072820;28;20178;-76
2021/09/16 00:36:02;;;;;;;1.48;1.00;;;20.80;63.00;;;;;;5073766;28;20174;-77
2021/09/16 00:38:27;;;;;;;3.53;1.38;;;20.80;62.90;;;;;;5074314;28;20214;-75
2021/09/16 00:40:53;;;;;;;1.88;1.05;;;20.80;63.00;;;;;;5073987;28;20170;-75
2021/09/16 00:43:18;;;;;;;3.10;1.10;;;20.80;62.90;;;;;;5076049;28;20174;-74
2021/09/16 00:45:44;;;;;;;2.15;1.08;;;20.80;62.80;;;;;;5073027;28;20261;-76
2021/09/16 00:48:09;;;;;;;2.45;1.10;;;20.80;62.80;;;;;;5073614;28;20182;-75
2021/09/16 00:50:37;;;;;;;1.17;0.90;;;20.80;62.90;;;;;;5073267;28;20266;-77
2021/09/16 00:53:02;;;;;;;2.03;0.90;;;20.80;62.80;;;;;;5073037;28;20256;-78
2021/09/16 00:55:28;;;;;;;1.60;0.77;;;20.80;62.80;;;;;;5073758;28;20637;-75
2021/09/16 00:57:54;;;;;;;1.85;1.00;;;20.80;62.60;;;;;;5074795;28;20543;-79
2021/09/16 01:00:20;;;;;;;2.70;1.17;;;20.80;62.60;;;;;;5073167;28;20170;-79
2021/09/16 01:02:45;;;;;;;3.53;1.00;;;20.80;62.50;;;;;;5074926;28;20517;-76
2021/09/16 01:05:11;;;;;;;1.80;0.90;;;20.80;62.40;;;;;;5073244;28;20527;-75
2021/09/16 01:07:39;;;;;;;1.92;0.90;;;20.80;62.60;;;;;;5072379;28;20185;-75
2021/09/16 01:10:06;;;;;;;1.33;0.85;;;20.80;62.60;;;;;;5073489;28;20545;-76
2021/09/16 01:12:31;;;;;;;1.35;0.90;;;20.70;62.40;;;;;;5072553;28;20230;-77
2021/09/16 01:14:56;;;;;;;1.42;1.00;;;20.70;62.50;;;;;;5072463;28;20170;-76
2021/09/16 01:17:22;;;;;;;2.30;1.17;;;20.70;62.50;;;;;;5072782;28;20175;-75
2021/09/16 01:19:48;;;;;;;2.72;0.77;;;20.70;62.40;;;;;;5072128;28;20334;-73
2021/09/16 01:22:17;;;;;;;2.28;1.08;;;20.70;62.30;;;;;;5072169;28;20276;-76
2021/09/16 01:24:43;;;;;;;2.20;1.02;;;20.70;62.30;;;;;;5073850;28;20185;-76
2021/09/16 01:27:09;;;;;;;1.88;0.80;;;20.70;62.20;;;;;;5073196;28;20257;-79
2021/09/16 01:29:34;;;;;;;1.10;0.80;;;20.70;62.40;;;;;;5072006;28;20206;-77
2021/09/16 01:32:02;;;;;;;1.90;1.15;;;20.70;62.50;;;;;;5072751;28;20166;-78
2021/09/16 01:34:28;;;;;;;0.82;0.80;;;20.70;62.30;;;;;;5072521;28;20269;-77
2021/09/16 01:36:53;;;;;;;1.80;1.02;;;20.70;62.20;;;;;;5072158;28;20256;-75
2021/09/16 01:39:19;;;;;;;5.72;0.90;;;20.70;62.10;;;;;;5073485;28;20296;-76
2021/09/16 01:41:45;;;;;;;1.85;0.80;;;20.70;62.10;;;;;;5072263;28;20258;-76
2021/09/16 01:44:10;;;;;;;1.45;1.00;;;20.60;62.10;;;;;;5074947;28;20601;-77
2021/09/16 01:46:36;;;;;;;2.83;1.10;;;20.60;62.00;;;;;;5073621;28;20171;-78
2021/09/16 01:49:03;;;;;;;2.58;1.08;;;20.60;62.10;;;;;;5072920;28;20182;-76
2021/09/16 01:51:29;;;;;;;2.55;0.98;;;20.60;62.00;;;;;;5073970;28;20185;-76
2021/09/16 01:53:54;;;;;;;1.50;0.95;;;20.60;62.10;;;;;;5074084;28;20182;-77
2021/09/16 01:56:19;;;;;;;0.98;0.85;;;20.60;62.00;;;;;;5072296;28;20178;-81
2021/09/16 01:58:45;;;;;;;1.35;0.80;;;20.60;61.90;;;;;;5073547;28;20255;-79
2021/09/16 02:01:11;;;;;;;1.95;0.60;;;20.60;61.80;;;;;;5073297;28;20167;-78
2021/09/16 02:03:36;;;;;;;1.85;0.93;;;20.60;61.90;;;;;;5074849;28;20533;-77
2021/09/16 02:06:02;;;;;;;2.28;0.90;;;20.60;61.90;;;;;;5073940;28;20175;-75
2021/09/16 02:08:27;;;;;;;1.73;1.00;;;20.60;61.70;;;;;;5072064;28;20626;-76
2021/09/16 02:10:53;;;;;;;1.40;0.70;;;20.60;61.70;;;;;;5071881;28;20176;-76
2021/09/16 02:13:18;;;;;;;2.50;0.70;;;20.60;61.80;;;;;;5072679;28;20183;-78
2021/09/16 02:15:44;;;;;;;1.20;0.80;;;20.60;61.70;;;;;;5072242;28;20170;-76
2021/09/16 02:18:09;;;;;;;2.08;0.95;;;20.60;61.70;;;;;;5071677;28;20238;-75
2021/09/16 02:20:35;;;;;;;2.10;0.95;;;20.60;61.70;;;;;;5072108;28;20177;-76
2021/09/16 02:23:00;;;;;;;2.92;0.73;;;20.50;61.60;;;;;;5073151;28;20178;-76
2021/09/16 02:25:26;;;;;;;2.80;0.80;;;20.50;61.60;;;;;;5073394;28;20171;-77
2021/09/16 02:27:51;;;;;;;1.65;0.80;;;20.50;61.70;;;;;;5073049;28;20179;-78
2021/09/16 02:30:17;;;;;;;1.33;1.02;;;20.50;61.90;;;;;;5074128;28;20178;-79
2021/09/16 02:32:42;;;;;;;3.45;0.85;;;20.50;61.70;;;;;;5075187;28;20178;-77
2021/09/16 02:35:10;;;;;;;1.95;1.00;;;20.50;61.70;;;;;;5077407;28;20178;-76
2021/09/16 02:37:35;;;;;;;1.23;0.80;;;20.60;61.80;;;;;;5075845;28;20261;-75
2021/09/16 02:40:01;;;;;;;1.55;1.00;;;20.50;61.80;;;;;;5076199;28;20178;-75
2021/09/16 02:42:26;;;;;;;1.73;1.10;;;20.50;61.80;;;;;;5076237;28;20185;-79
2021/09/16 02:44:52;;;;;;;3.95;0.90;;;20.50;61.90;;;;;;5075857;28;20540;-75
2021/09/16 02:47:17;;;;;;;1.50;0.70;;;20.50;61.90;;;;;;5075355;28;20183;-75
2021/09/16 02:49:43;;;;;;;1.63;0.93;;;20.50;61.90;;;;;;5075508;28;20162;-75
2021/09/16 02:52:08;;;;;;;1.85;1.02;;;20.50;61.90;;;;;;5076742;28;20276;-77
2021/09/16 02:54:34;;;;;;;1.67;0.90;;;20.50;62.00;;;;;;5075745;28;20657;-77
2021/09/16 02:56:59;;;;;;;2.05;0.80;;;20.50;62.00;;;;;;5078066;28;20193;-76
2021/09/16 02:59:25;;;;;;;1.40;1.00;;;20.50;61.90;;;;;;5075721;28;20219;-77
2021/09/16 03:01:50;;;;;;;2.42;1.02;;;20.50;62.10;;;;;;5076512;28;20174;-76
2021/09/16 03:04:16;;;;;;;1.63;0.80;;;20.50;62.10;;;;;;5075990;28;20186;-76
2021/09/16 03:06:41;;;;;;;2.55;1.05;;;20.50;62.00;;;;;;5074555;28;20171;-74
2021/09/16 03:09:07;;;;;;;1.95;0.90;;;20.50;62.00;;;;;;5075406;28;20162;-74
2021/09/16 03:11:32;;;;;;;1.73;1.02;;;20.50;62.10;;;;;;5075016;28;20723;-75
2021/09/16 03:13:57;;;;;;;1.75;0.75;;;20.40;62.10;;;;;;5074749;28;20178;-76
2021/09/16 03:16:23;;;;;;;1.50;0.80;;;20.40;61.90;;;;;;5075034;28;20300;-77
2021/09/16 03:18:49;;;;;;;2.17;1.05;;;20.40;61.80;;;;;;5075224;28;20319;-74
2021/09/16 03:21:14;;;;;;;1.10;0.60;;;20.40;61.90;;;;;;5074433;28;20240;-74
2021/09/16 03:23:39;;;;;;;1.15;0.88;;;20.40;62.20;;;;;;5074823;28;20185;-76
2021/09/16 03:26:05;;;;;;;1.63;0.73;;;20.40;62.20;;;;;;5076693;28;20631;-78
2021/09/16 03:28:30;;;;;;;1.05;0.70;;;20.40;62.60;;;;;;5074167;28;20186;-78
2021/09/16 03:30:56;;;;;;;3.45;1.10;;;20.40;62.70;;;;;;5074952;28;20261;-76
2021/09/16 03:33:21;;;;;;;1.63;0.90;;;20.40;63.10;;;;;;5074733;28;20189;-75
2021/09/16 03:35:47;;;;;;;1.33;0.93;;;20.40;63.40;;;;;;5074150;28;20177;-75
2021/09/16 03:38:12;;;;;;;0.90;0.70;;;20.40;63.50;;;;;;5075005;28;20214;-75
2021/09/16 03:40:38;;;;;;;1.60;0.63;;;20.40;63.60;;;;;;5074617;28;20174;-75
2021/09/16 03:43:03;;;;;;;0.90;0.70;;;20.40;63.70;;;;;;5073717;28;20544;-75
2021/09/16 03:45:29;;;;;;;1.65;0.88;;;20.40;63.80;;;;;;5074556;28;20628;-76
2021/09/16 03:47:54;;;;;;;2.53;0.98;;;20.40;63.20;;;;;;5074945;28;20170;-74
2021/09/16 03:50:20;;;;;;;2.33;0.90;;;20.40;62.90;;;;;;5074042;28;20173;-75
2021/09/16 03:52:45;;;;;;;2.05;0.75;;;20.40;63.10;;;;;;5074996;28;20383;-76
2021/09/16 03:55:11;;;;;;;1.25;0.65;;;20.40;62.80;;;;;;5074737;28;20178;-76
2021/09/16 03:57:36;;;;;;;2.15;0.73;;;20.40;62.80;;;;;;5074243;28;20197;-78
2021/09/16 04:00:06;;;;;;;1.10;1.00;;;20.40;62.90;;;;;;5075428;28;20579;-79
2021/09/16 04:02:31;;;;;;;1.48;0.90;;;20.40;62.90;;;;;;5076018;28;20175;-78
2021/09/16 04:04:57;;;;;;;1.88;0.80;;;20.40;62.90;;;;;;5076654;28;20181;-76
2021/09/16 04:07:22;;;;;;;3.60;1.20;;;20.40;63.00;;;;;;5075308;28;20163;-75
2021/09/16 04:09:48;;;;;;;1.10;0.85;;;20.40;62.90;;;;;;5073939;28;20197;-76
2021/09/16 04:12:13;;;;;;;2.92;0.88;;;20.40;63.00;;;;;;5074012;28;20226;-76
2021/09/16 04:14:39;;;;;;;1.20;0.90;;;20.40;63.10;;;;;;5074296;28;20174;-78
2021/09/16 04:17:04;;;;;;;2.15;0.73;;;20.40;63.10;;;;;;5073082;28;20197;-76
2021/09/16 04:19:30;;;;;;;2.80;0.82;;;20.40;63.20;;;;;;5074265;28;20238;-75
2021/09/16 04:21:55;;;;;;;2.28;0.98;;;20.40;63.10;;;;;;5073956;28;20177;-78
2021/09/16 04:24:21;;;;;;;1.98;0.95;;;20.40;63.20;;;;;;5075025;28;20175;-77
2021/09/16 04:26:46;;;;;;;3.45;1.20;;;20.40;63.20;;;;;;5073902;28;20536;-78
2021/09/16 04:29:12;;;;;;;2.08;1.15;;;20.40;63.30;;;;;;5073652;28;20197;-78
2021/09/16 04:31:38;;;;;;;2.33;0.70;;;20.40;63.30;;;;;;5073086;28;20179;-76
2021/09/16 04:34:03;;;;;;;1.80;1.00;;;20.40;63.30;;;;;;5073462;28;20185;-79
2021/09/16 04:36:29;;;;;;;1.15;0.90;;;20.30;63.30;;;;;;5073947;28;20175;-77
2021/09/16 04:38:54;;;;;;;2.70;1.10;;;20.30;63.20;;;;;;5073000;28;20206;-75
2021/09/16 04:41:20;;;;;;;1.27;1.05;;;20.40;63.40;;;;;;5073689;28;20178;-73
2021/09/16 04:43:45;;;;;;;1.85;1.10;;;20.40;63.40;;;;;;5075965;28;20566;-75
2021/09/16 04:46:11;;;;;;;1.00;0.82;;;20.30;64.30;;;;;;5072727;28;20167;-76
2021/09/16 04:48:36;;;;;;;3.47;0.95;;;20.30;63.40;;;;;;5074260;28;20182;-75
2021/09/16 04:51:02;;;;;;;2.25;0.98;;;20.30;63.40;;;;;;5073036;28;20248;-76
2021/09/16 04:53:27;;;;;;;1.63;0.80;;;20.30;63.50;;;;;;5072007;28;20180;-76
2021/09/16 04:55:53;;;;;;;2.45;1.15;;;20.30;63.50;;;;;;5073139;28;20205;-77
2021/09/16 04:58:18;;;;;;;1.58;1.23;;;20.30;63.60;;;;;;5073764;28;20194;-80
2021/09/16 05:00:44;;;;;;;1.33;0.95;;;20.30;63.50;;;;;;5074510;28;20580;-78
2021/09/16 05:03:09;;;;;;;2.28;0.90;;;20.30;63.50;;;;;;5074216;28;20629;-78
2021/09/16 05:05:35;;;;;;;1.48;0.95;;;20.30;63.60;;;;;;5073499;28;20235;-75
2021/09/16 05:08:00;;;;;;;1.27;0.77;;;20.30;63.60;;;;;;5072238;28;20165;-76
2021/09/16 05:10:26;;;;;;;1.00;0.70;;;20.30;63.60;;;;;;5073258;28;20175;-76
2021/09/16 05:12:51;;;;;;;2.92;1.13;;;20.30;63.60;;;;;;5072251;28;20225;-77
2021/09/16 05:15:17;;;;;;;2.05;1.13;;;20.30;63.70;;;;;;5073115;28;20198;-80
2021/09/16 05:17:43;;;;;;;2.03;1.00;;;20.30;63.70;;;;;;5073074;28;20290;-75
2021/09/16 05:20:09;;;;;;;2.85;1.20;;;20.30;63.80;;;;;;5072022;28;20186;-74
2021/09/16 05:22:34;;;;;;;1.75;1.00;;;20.30;63.70;;;;;;5073430;28;20170;-76
2021/09/16 05:24:59;;;;;;;3.40;1.10;;;20.30;63.70;;;;;;5073041;28;20179;-76
2021/09/16 05:27:25;;;;;;;1.35;0.85;;;20.30;64.60;;;;;;5072457;28;20170;-78
2021/09/16 05:29:50;;;;;;;1.42;0.90;;;20.30;63.90;;;;;;5072884;28;20257;-77
2021/09/16 05:32:16;;;;;;;1.80;0.80;;;20.30;63.90;;;;;;5072915;28;20174;-78
2021/09/16 05:34:41;;;;;;;1.92;0.80;;;20.30;63.90;;;;;;5072152;28;20201;-76
2021/09/16 05:37:07;;;;;;;2.65;0.90;;;20.30;63.90;;;;;;5072730;28;20175;-75
2021/09/16 05:39:33;;;;;;;2.22;0.93;;;20.30;64.00;;;;;;5072850;28;20240;-76
2021/09/16 05:41:58;;;;;;;4.15;1.08;;;20.30;64.00;;;;;;5071848;28;20170;-76
2021/09/16 05:44:24;;;;;;;1.25;0.80;;;20.30;64.00;;;;;;5072854;28;20705;-75
2021/09/16 05:46:49;;;;;;;1.75;1.05;;;20.30;64.00;;;;;;5072787;28;20167;-78
2021/09/16 05:49:14;;;;;;;1.88;0.77;;;20.30;64.00;;;;;;5072177;28;20170;-77
2021/09/16 05:51:40;;;;;;;2.30;1.00;;;20.30;64.00;;;;;;5072647;28;20170;-79
2021/09/16 05:54:05;;;;;;;2.38;1.17;;;20.30;64.00;;;;;;5072786;28;20195;-78
2021/09/16 05:56:31;;;;;;;2.88;0.88;;;20.30;64.20;;;;;;5072121;28;20205;-77
2021/09/16 05:58:57;;;;;;;1.67;1.10;;;20.30;64.10;;;;;;5073196;28;20285;-79
2021/09/16 06:01:22;;;;;;;1.58;0.85;;;20.30;64.10;;;;;;5073992;28;20678;-78
2021/09/16 06:03:48;;;;;;;1.85;1.05;;;20.30;64.10;;;;;;5073046;28;20174;-78
2021/09/16 06:06:13;;;;;;;1.45;0.90;;;20.20;64.00;;;;;;5076371;28;20170;-76
2021/09/16 06:08:39;;;;;;;2.85;1.08;;;20.30;64.20;;;;;;5076745;28;20547;-75
2021/09/16 06:11:04;;;;;;;1.48;0.82;;;20.30;64.10;;;;;;5075461;28;20224;-75
2021/09/16 06:13:30;;;;;;;2.47;0.95;;;20.30;64.10;;;;;;5076656;28;20178;-76
2021/09/16 06:15:55;;;;;;;1.70;0.82;;;20.30;64.10;;;;;;5076139;28;20262;-78
2021/09/16 06:18:21;;;;;;;1.80;0.80;;;20.30;64.00;;;;;;5075560;28;20226;-78
2021/09/16 06:20:47;;;;;;;1.25;0.68;;;20.30;64.00;;;;;;5077400;28;20246;-77
2021/09/16 06:23:13;;;;;;;2.08;1.02;;;20.30;64.10;;;;;;5076091;28;20177;-77
2021/09/16 06:25:38;;;;;;;3.10;0.85;;;20.30;64.10;;;;;;5076996;28;20551;-80
2021/09/16 06:28:04;;;;;;;2.05;0.70;;;20.30;64.10;;;;;;5075886;28;20211;-77
2021/09/16 06:30:29;;;;;;;1.55;0.90;;;20.30;64.30;;;;;;5075491;28;20181;-78
2021/09/16 06:32:55;;;;;;;1.58;0.75;;;20.30;64.40;;;;;;5075902;28;20167;-77
2021/09/16 06:35:20;;;;;;;1.20;0.90;;;20.30;64.50;;;;;;5076126;28;20178;-78
2021/09/16 06:37:46;;;;;;;2.13;1.00;;;20.30;64.60;;;;;;5075312;28;20582;-76
2021/09/16 06:40:12;;;;;;;2.55;0.80;;;20.30;64.50;;;;;;5076517;28;20186;-75
2021/09/16 06:42:37;;;;;;;1.73;0.75;;;20.30;64.40;;;;;;5076332;28;20202;-77
2021/09/16 06:45:04;;;;;;;3.33;1.00;;;20.30;64.40;;;;;;5075144;28;20651;-77
2021/09/16 06:47:29;;;;;;;1.95;0.95;;;20.30;64.40;;;;;;5075777;28;20254;-75
2021/09/16 06:49:55;;;;;;;0.90;0.70;;;20.30;64.50;;;;;;5075459;28;20613;-76
2021/09/16 06:52:22;;;;;;;2.42;0.85;;;20.30;64.60;;;;;;5075024;28;20210;-77
2021/09/16 06:54:48;;;;;;;2.50;0.88;;;20.30;64.50;;;;;;5075795;28;20213;-77
2021/09/16 06:57:13;;;;;;;1.95;0.77;;;20.30;64.60;;;;;;5075798;28;20228;-75
2021/09/16 06:59:39;;;;;;;2.15;0.85;;;20.30;64.50;;;;;;5076472;28;20214;-78
2021/09/16 07:02:04;;;;;;;1.70;0.82;;;20.30;64.50;;;;;;5075647;28;20182;-76
2021/09/16 07:04:30;;;;;;;1.80;1.10;;;20.30;64.40;;;;;;5076188;28;20206;-79
2021/09/16 07:06:58;;;;;;;1.52;0.93;;;20.30;64.40;;;;;;5074596;28;20610;-77
2021/09/16 07:09:24;;;;;;;1.25;0.90;;;20.30;64.40;;;;;;5075590;28;20175;-75
2021/09/16 07:11:49;;;;;;;2.65;0.95;;;20.30;64.30;;;;;;5075043;28;20245;-77
2021/09/16 07:14:14;;;;;;;1.63;0.77;;;20.30;64.30;;;;;;5074624;28;20675;-77
2021/09/16 07:16:40;;;;;;;3.70;1.30;;;20.30;64.40;;;;;;5074134;28;20167;-77
2021/09/16 07:19:05;;;;;;;3.10;1.20;;;20.30;64.30;;;;;;5074723;28;20245;-73
2021/09/16 07:21:31;;;;;;;2.90;1.00;;;20.30;64.30;;;;;;5074679;28;20533;-73
2021/09/16 07:23:56;;;;;;;2.55;1.20;;;20.30;64.30;;;;;;5075359;28;20174;-77
2021/09/16 07:26:23;;;;;;;1.63;0.82;;;20.30;64.30;;;;;;5075204;28;20642;-78
2021/09/16 07:28:49;;;;;;;2.80;0.93;;;20.30;64.30;;;;;;5074812;28;20183;-78
2021/09/16 07:31:14;;;;;;;1.65;0.90;;;20.40;64.50;;;;;;5075132;28;20527;-77
2021/09/16 07:33:40;;;;;;;2.25;1.33;;;20.40;64.40;;;;;;5074521;28;20179;-76
2021/09/16 07:36:05;;;;;;;4.03;1.40;;;20.40;64.40;;;;;;5074706;28;20608;-77
2021/09/16 07:38:31;;;;;;;2.00;0.80;;;20.50;64.50;;;;;;5074916;28;20206;-75
2021/09/16 07:40:56;;;;;;;1.08;0.77;;;20.40;64.40;;;;;;5073871;28;20698;-72
2021/09/16 07:43:22;;;;;;;3.28;1.25;;;20.50;64.50;;;;;;5075087;28;20186;-74
2021/09/16 07:45:47;;;;;;;3.53;1.13;;;20.60;64.50;;;;;;5074602;28;20213;-75
2021/09/16 07:48:13;;;;;;;2.30;1.00;;;20.60;64.50;;;;;;5074207;28;20181;-75
2021/09/16 07:50:38;;;;;;;2.15;0.82;;;20.60;64.50;;;;;;5074760;28;20253;-70
2021/09/16 07:53:05;;;;;;;2.70;1.10;;;20.70;64.40;;;;;;5074964;28;20166;-74
2021/09/16 07:55:30;;;;;;;2.63;1.30;;;20.70;64.50;;;;;;5074172;28;20178;-78
2021/09/16 07:57:56;;;;;;;4.40;1.45;;;20.70;64.40;;;;;;5074254;28;20186;-75
2021/09/16 08:00:21;;;;;;;6.45;1.20;;;20.80;64.40;;;;;;5074490;28;20170;-76
2021/09/16 08:02:48;;;;;;;2.83;1.00;;;20.90;64.40;;;;;;5073686;28;20248;-74
2021/09/16 08:05:13;;;;;;;2.60;1.35;;;20.80;64.50;;;;;;5074489;28;20206;-72
2021/09/16 08:07:39;;;;;;;2.40;1.00;;;20.80;64.70;;;;;;5074304;28;20206;-73
2021/09/16 08:10:05;;;;;;;5.10;1.10;;;20.90;65.00;;;;;;5073358;28;20206;-72
2021/09/16 08:12:30;;;;;;;3.35;1.00;;;20.80;65.10;;;;;;5067920;28;20219;-74
2021/09/16 08:14:56;;;;;;;2.90;1.00;;;20.80;65.20;;;;;;5063790;28;20170;-74
2021/09/16 08:17:21;;;;;;;4.22;1.20;;;20.90;65.00;;;;;;5063036;28;20579;-74
2021/09/16 08:19:47;;;;;;;1.98;1.02;;;20.90;64.90;;;;;;5058067;28;20225;-72
2021/09/16 08:22:12;;;;;;;2.97;0.80;;;20.80;64.90;;;;;;5054066;28;20186;-73
2021/09/16 08:24:38;;;;;;;4.40;1.05;;;21.00;64.90;;;;;;5053406;28;20182;-75
2021/09/16 08:27:03;;;;;;;3.33;1.05;;;21.00;64.80;;;;;;5053336;28;20171;-76
2021/09/16 08:29:30;;;;;;;2.42;1.10;;;21.10;64.90;;;;;;5053807;28;20661;-77
2021/09/16 08:31:55;;;;;;;3.25;1.40;;;21.10;64.90;;;;;;5052720;28;20508;-75
2021/09/16 08:34:24;;;;;;;3.40;0.90;;;21.10;64.80;;;;;;5036253;28;20262;-75
2021/09/16 08:36:50;;;;;;;2.75;1.10;;;21.10;64.80;;;;;;5035596;28;20246;-76
2021/09/16 08:39:15;;;;;;;3.33;0.85;;;21.10;64.90;;;;;;5053462;28;20685;-74
2021/09/16 08:41:42;;;;;;;1.27;1.05;;;21.10;64.90;;;;;;5053853;28;20177;-76
2021/09/16 08:44:07;;;;;;;1.95;0.77;;;21.10;65.00;;;;;;5052660;28;20666;-74
2021/09/16 08:46:33;;;;;;;4.88;1.35;;;21.10;65.00;;;;;;5036089;28;20178;-74
2021/09/16 08:48:58;;;;;;;2.08;0.68;;;21.10;65.00;;;;;;5053501;28;20221;-73
2021/09/16 08:51:24;;;;;;;1.30;0.90;;;21.10;65.00;;;;;;5053105;28;20171;-74
2021/09/16 08:53:51;;;;;;;1.45;0.80;;;21.10;64.80;;;;;;5035946;28;20171;-75
2021/09/16 08:56:17;;;;;;;2.65;0.85;;;21.10;65.00;;;;;;5053664;28;20175;-76
2021/09/16 08:58:42;;;;;;;3.85;1.20;;;21.10;64.80;;;;;;5035402;28;20207;-77
2021/09/16 09:01:08;;;;;;;2.78;1.00;;;21.10;64.60;;;;;;5035254;28;20171;-76
2021/09/16 09:03:33;;;;;;;1.63;1.10;;;21.20;64.50;;;;;;5053334;28;20175;-74
2021/09/16 09:05:59;;;;;;;1.80;0.63;;;21.20;64.40;;;;;;5052451;28;20178;-73
2021/09/16 09:08:25;;;;;;;2.42;0.90;;;21.30;64.40;;;;;;5053333;28;20171;-74
2021/09/16 09:10:55;;;;;;;3.08;0.77;;;21.30;64.30;;;;;;5052763;28;20190;-76
2021/09/16 09:13:32;;;;;;;2.65;0.98;;;21.30;64.30;;;;;;5052362;28;20193;-77
2021/09/16 09:16:06;;;;;;;2.00;0.70;;;21.20;64.40;;;;;;5052710;28;20182;-76
2021/09/16 09:18:52;;;;;;;0.57;0.57;;;21.20;64.60;;;;;;5053719;28;20218;-76
2021/09/16 09:21:18;;;;;;;1.73;0.88;;;21.10;64.60;;;;;;5052794;28;20171;-77
2021/09/16 09:24:01;;;;;;;1.30;0.90;;;21.10;64.70;;;;;;5053583;28;20225;-75
2021/09/16 09:26:31;;;;;;;3.38;0.90;;;21.10;64.70;;;;;;5053707;28;20559;-79
2021/09/16 09:29:17;;;;;;;3.67;1.00;;;21.10;64.60;;;;;;5052847;28;20190;-79
2021/09/16 09:32:00;;;;;;;1.45;0.80;;;21.20;64.30;;;;;;5052707;28;20206;-78
2021/09/16 09:34:38;;;;;;;1.52;0.90;;;21.20;64.20;;;;;;5052565;28;20212;-76
2021/09/16 09:37:10;;;;;;;1.15;0.90;;;21.20;64.20;;;;;;5053270;28;20200;-76
2021/09/16 09:39:35;;;;;;;2.88;1.30;;;21.20;64.10;;;;;;5052587;28;20705;-75
2021/09/16 09:42:17;;;;;;;3.00;1.00;;;21.20;64.10;;;;;;5051869;28;20210;-78
2021/09/16 09:44:42;;;;;;;2.75;1.30;;;21.10;64.20;;;;;;5052703;28;20182;-76
2021/09/16 09:47:08;;;;;;;1.83;1.13;;;21.20;64.20;;;;;;5052046;28;20170;-76
2021/09/16 09:49:36;;;;;;;2.50;1.00;;;21.20;63.90;;;;;;5052933;28;20175;-75
2021/09/16 09:52:01;;;;;;;3.88;1.98;;;21.30;63.80;;;;;;5052644;28;20212;-76
2021/09/16 09:54:32;;;;;;;2.78;1.17;;;21.40;63.60;;;;;;5053262;28;20179;-78
2021/09/16 09:57:00;;;;;;;4.45;1.30;;;21.40;63.40;;;;;;5052424;28;20179;-75
2021/09/16 09:59:25;;;;;;;3.50;1.42;;;21.40;63.20;;;;;;5052697;28;20687;-74
2021/09/16 10:02:02;;;;;;;2.47;1.23;;;21.50;63.20;;;;;;5051836;28;20207;-76
2021/09/16 10:04:28;;;;;;;3.33;1.05;;;21.50;63.20;;;;;;5053072;28;20178;-74
2021/09/16 10:06:54;;;;;;;2.60;1.20;;;21.50;63.10;;;;;;5052189;28;20679;-74
2021/09/16 10:09:21;;;;;;;3.17;1.25;;;21.60;63.20;;;;;;5051874;28;20175;-73
2021/09/16 10:11:47;;;;;;;2.70;1.33;;;21.60;62.90;;;;;;5051653;28;20219;-72
2021/09/16 10:14:13;;;;;;;2.08;1.40;;;21.70;62.80;;;;;;5051932;28;20641;-74
2021/09/16 10:16:39;;;;;;;4.05;1.50;;;21.70;62.80;;;;;;5051391;28;20175;-73
2021/09/16 10:19:04;;;;;;;2.53;1.20;;;21.70;62.80;;;;;;5050795;28;20203;-74
2021/09/16 10:21:30;;;;;;;3.42;1.50;;;21.70;62.80;;;;;;5051973;28;20186;-72
2021/09/16 10:23:57;;;;;;;1.23;1.08;;;21.70;62.70;;;;;;5050460;28;20194;-73
2021/09/16 10:26:37;;;;;;;2.97;1.30;;;21.70;63.60;;;;;;5052217;28;20207;-78
2021/09/16 10:29:04;;;;;;;1.98;1.10;;;21.70;62.60;;;;;;5052963;28;20183;-77
2021/09/16 10:31:29;;;;;;;1.40;1.20;;;21.70;62.40;;;;;;5051788;28;20626;-70
2021/09/16 10:33:55;;;;;;;6.90;1.63;;;21.70;62.60;;;;;;5051800;28;20178;-70
2021/09/16 10:36:20;;;;;;;2.97;1.30;;;21.70;63.60;;;;;;5051540;28;20258;-72
2021/09/16 10:38:51;;;;;;;5.65;1.50;;;21.60;63.00;;;;;;5050746;28;20232;-69
2021/09/16 10:41:23;;;;;;;3.45;1.63;;;21.70;63.10;;;;;;5052388;28;20176;-66
2021/09/16 10:43:50;;;;;;;3.33;1.50;;;21.80;62.90;;;;;;5051456;28;20186;-70
2021/09/16 10:46:29;;;;;;;3.22;1.30;;;21.80;62.80;;;;;;5052226;28;20176;-75
2021/09/16 10:48:56;;;;;;;7.35;1.60;;;21.80;62.60;;;;;;5034037;28;20211;-74
2021/09/16 10:51:39;;;;;;;4.78;1.52;;;21.80;62.40;;;;;;5053247;28;20182;-75
2021/09/16 10:54:28;;;;;;;5.70;1.42;;;21.70;62.00;;;;;;5055479;28;20201;-77
2021/09/16 10:57:12;;;;;;;8.98;1.77;;;21.80;61.90;;;;;;5055123;28;20691;-77
2021/09/16 10:59:53;;;;;;;2.40;1.42;;;21.80;61.70;;;;;;5054823;28;20294;-79
2021/09/16 11:02:21;;;;;;;3.65;1.50;;;21.90;61.40;;;;;;5055562;28;20186;-76
2021/09/16 11:04:56;;;;;;;3.55;1.80;;;21.90;62.10;;;;;;5054907;28;20217;-79
2021/09/16 11:07:39;;;;;;;3.97;1.58;;;21.90;61.20;;;;;;5055568;28;20565;-78
2021/09/16 11:10:17;;;;;;;2.10;1.17;;;22.00;61.20;;;;;;5055418;28;20202;-78
2021/09/16 11:12:43;;;;;;;2.50;1.27;;;22.00;61.00;;;;;;5054661;28;20233;-78
2021/09/16 11:15:12;;;;;;;1.88;1.10;;;22.00;60.90;;;;;;5055226;28;20221;-79
2021/09/16 11:17:41;;;;;;;4.00;1.50;;;22.10;60.80;;;;;;5055469;28;20167;-78
2021/09/16 11:20:08;;;;;;;1.83;1.17;;;22.00;60.60;;;;;;5054159;28;20703;-76
2021/09/16 11:22:34;;;;;;;3.13;1.30;;;22.10;60.50;;;;;;5055350;28;20241;-77
2021/09/16 11:24:59;;;;;;;1.77;1.38;;;22.10;60.30;;;;;;5054874;28;20175;-77
2021/09/16 11:27:32;;;;;;;2.92;1.20;;;22.00;60.40;;;;;;5054555;28;20171;-78
2021/09/16 11:29:58;;;;;;;1.45;1.00;;;21.90;60.60;;;;;;5054778;28;20533;-76
2021/09/16 11:32:34;;;;;;;1.88;1.25;;;21.90;60.80;;;;;;5055048;28;20176;-77
2021/09/16 11:35:07;;;;;;;3.65;1.40;;;21.90;60.70;;;;;;5054617;28;20179;-78
2021/09/16 11:37:37;;;;;;;2.53;1.10;;;22.00;60.50;;;;;;5055188;28;20175;-78
2021/09/16 11:40:10;;;;;;;1.70;1.30;;;22.00;60.40;;;;;;5054043;28;20221;-77
2021/09/16 11:42:40;;;;;;;2.25;1.50;;;22.00;60.30;;;;;;5055049;28;20231;-78
2021/09/16 11:45:16;;;;;;;1.33;1.10;;;21.90;60.30;;;;;;5054518;28;20183;-75
2021/09/16 11:47:55;;;;;;;3.63;1.20;;;21.80;60.40;;;;;;5054289;28;20171;-76
2021/09/16 11:50:30;;;;;;;2.28;1.35;;;21.80;60.50;;;;;;5054972;28;20178;-77
2021/09/16 11:53:01;;;;;;;2.95;1.25;;;21.70;60.50;;;;;;5054352;28;20660;-76
2021/09/16 11:55:27;;;;;;;2.45;1.08;;;21.70;60.60;;;;;;5053849;28;20547;-77
2021/09/16 11:58:01;;;;;;;2.88;1.10;;;21.70;60.50;;;;;;5054088;28;20214;-76
2021/09/16 12:00:33;;;;;;;2.08;1.10;;;21.70;60.40;;;;;;5054430;28;20653;-76
2021/09/16 12:02:58;;;;;;;1.10;1.00;;;21.70;60.40;;;;;;5052952;28;20523;-75
2021/09/16 12:05:31;;;;;;;1.20;1.10;;;21.80;60.30;;;;;;5054405;28;20262;-76
2021/09/16 12:07:58;;;;;;;0.98;0.98;;;21.70;60.30;;;;;;5053517;28;20649;-78
2021/09/16 12:10:23;;;;;;;1.90;1.00;;;21.70;60.40;;;;;;5052974;28;20185;-77
2021/09/16 12:12:49;;;;;;;2.45;0.82;;;21.70;60.40;;;;;;5053901;28;20302;-78
2021/09/16 12:15:23;;;;;;;1.85;1.10;;;21.70;60.40;;;;;;5053598;28;20202;-78
2021/09/16 12:17:49;;;;;;;1.80;1.20;;;21.60;60.40;;;;;;5054040;28;20171;-77
2021/09/16 12:20:14;;;;;;;1.92;1.23;;;21.60;60.40;;;;;;5052756;28;20249;-76
2021/09/16 12:22:40;;;;;;;1.23;0.93;;;21.60;60.40;;;;;;5052120;28;20646;-75
2021/09/16 12:25:06;;;;;;;0.90;0.80;;;21.60;60.40;;;;;;5052781;28;20175;-78
2021/09/16 12:27:31;;;;;;;1.85;1.23;;;21.60;60.40;;;;;;5054155;28;20221;-77
2021/09/16 12:29:57;;;;;;;1.10;1.00;;;21.60;60.40;;;;;;5053342;28;20235;-76
2021/09/16 12:32:31;;;;;;;1.00;1.00;;;21.50;60.40;;;;;;5053897;28;20199;-77
2021/09/16 12:34:57;;;;;;;1.42;1.00;;;21.70;60.40;;;;;;5053635;28;20258;-77
2021/09/16 12:37:30;;;;;;;2.35;1.10;;;21.70;60.20;;;;;;5051876;28;20255;-78
2021/09/16 12:39:55;;;;;;;1.50;1.40;;;21.70;60.10;;;;;;5053554;28;20218;-77
2021/09/16 12:42:47;;;;;;;1.52;1.02;;;21.80;59.90;;;;;;5053893;28;20171;-76
2021/09/16 12:45:13;;;;;;;1.98;1.13;;;21.80;59.60;;;;;;5050900;28;20187;-76
2021/09/16 12:47:52;;;;;;;2.45;1.10;;;21.90;59.70;;;;;;5053631;28;20183;-75